sensor_id;sensor_type;location;lat;lon;timestamp;temperature;humidity
431;DHT22;202;48.764;9.172;2023-07-13T00:02:16;22.70;26.10
431;DHT22;202;48.764;9.172;2023-07-13T00:05:09;22.60;26.00
431;DHT22;202;48.764;9.172;2023-07-13T00:09:40;22.60;25.70
431;DHT22;202;48.764;9.172;2023-07-13T00:18:02;22.60;25.60
431;DHT22;202;48.764;9.172;2023-07-13T00:20:34;22.40;25.60
431;DHT22;202;48.764;9.172;2023-07-13T00:23:06;22.40;25.60
431;DHT22;202;48.764;9.172;2023-07-13T00:25:51;22.40;25.60
431;DHT22;202;48.764;9.172;2023-07-13T00:28:48;22.30;26.40
431;DHT22;202;48.764;9.172;2023-07-13T00:31:50;22.30;25.40
431;DHT22;202;48.764;9.172;2023-07-13T00:34:27;22.30;25.40
431;DHT22;202;48.764;9.172;2023-07-13T00:41:01;22.20;25.40
431;DHT22;202;48.764;9.172;2023-07-13T00:48:30;21.90;25.10
431;DHT22;202;48.764;9.172;2023-07-13T01:11:01;21.50;25.60
431;DHT22;202;48.764;9.172;2023-07-13T01:13:51;21.40;26.00
431;DHT22;202;48.764;9.172;2023-07-13T01:16:47;21.40;25.60
431;DHT22;202;48.764;9.172;2023-07-13T01:19:38;21.40;26.20
431;DHT22;202;48.764;9.172;2023-07-13T01:22:37;21.30;26.10
431;DHT22;202;48.764;9.172;2023-07-13T01:25:09;21.20;26.10
431;DHT22;202;48.764;9.172;2023-07-13T01:27:45;21.20;26.90
431;DHT22;202;48.764;9.172;2023-07-13T01:30:29;21.20;26.60
431;DHT22;202;48.764;9.172;2023-07-13T01:33:20;21.20;26.50
431;DHT22;202;48.764;9.172;2023-07-13T01:35:52;21.10;26.40
431;DHT22;202;48.764;9.172;2023-07-13T01:38:40;21.10;26.40
431;DHT22;202;48.764;9.172;2023-07-13T01:41:28;21.00;27.00
431;DHT22;202;48.764;9.172;2023-07-13T01:44:02;20.90;27.10
431;DHT22;202;48.764;9.172;2023-07-13T01:47:16;20.90;27.50
431;DHT22;202;48.764;9.172;2023-07-13T01:53:54;20.80;27.10
431;DHT22;202;48.764;9.172;2023-07-13T01:56:54;20.80;27.10
431;DHT22;202;48.764;9.172;2023-07-13T02:06:12;21.00;26.50
431;DHT22;202;48.764;9.172;2023-07-13T02:09:00;20.80;26.60
431;DHT22;202;48.764;9.172;2023-07-13T02:11:35;20.80;26.60
431;DHT22;202;48.764;9.172;2023-07-13T02:14:59;20.70;26.50
431;DHT22;202;48.764;9.172;2023-07-13T02:17:34;20.60;27.20
431;DHT22;202;48.764;9.172;2023-07-13T02:20:01;20.60;27.20
431;DHT22;202;48.764;9.172;2023-07-13T02:22:56;20.60;27.10
431;DHT22;202;48.764;9.172;2023-07-13T02:25:47;20.60;26.80
431;DHT22;202;48.764;9.172;2023-07-13T02:28:27;20.50;27.00
431;DHT22;202;48.764;9.172;2023-07-13T02:30:54;20.40;27.40
431;DHT22;202;48.764;9.172;2023-07-13T02:33:21;20.40;27.70
431;DHT22;202;48.764;9.172;2023-07-13T02:36:13;20.30;27.60
431;DHT22;202;48.764;9.172;2023-07-13T02:39:11;20.30;27.70
431;DHT22;202;48.764;9.172;2023-07-13T02:41:58;20.20;27.70
431;DHT22;202;48.764;9.172;2023-07-13T02:44:42;20.20;28.30
431;DHT22;202;48.764;9.172;2023-07-13T02:47:37;20.10;28.30
431;DHT22;202;48.764;9.172;2023-07-13T02:50:37;20.20;28.80
431;DHT22;202;48.764;9.172;2023-07-13T02:53:20;20.10;28.60
431;DHT22;202;48.764;9.172;2023-07-13T02:55:59;20.20;28.60
431;DHT22;202;48.764;9.172;2023-07-13T02:58:54;20.30;28.10
431;DHT22;202;48.764;9.172;2023-07-13T03:01:52;20.30;28.80
431;DHT22;202;48.764;9.172;2023-07-13T03:04:19;20.20;29.30
431;DHT22;202;48.764;9.172;2023-07-13T04:52:22;20.40;28.40
431;DHT22;202;48.764;9.172;2023-07-13T04:57:49;20.40;27.50
431;DHT22;202;48.764;9.172;2023-07-13T05:07:15;20.60;27.70
431;DHT22;202;48.764;9.172;2023-07-13T05:38:29;20.80;26.60
431;DHT22;202;48.764;9.172;2023-07-13T05:41:48;20.80;27.30
431;DHT22;202;48.764;9.172;2023-07-13T05:54:50;20.80;27.10
431;DHT22;202;48.764;9.172;2023-07-13T05:57:37;20.90;26.80
431;DHT22;202;48.764;9.172;2023-07-13T06:00:15;20.90;26.40
431;DHT22;202;48.764;9.172;2023-07-13T06:02:42;21.00;26.30
431;DHT22;202;48.764;9.172;2023-07-13T06:21:05;21.90;23.30
431;DHT22;202;48.764;9.172;2023-07-13T06:43:18;23.80;20.90
431;DHT22;202;48.764;9.172;2023-07-13T06:45:47;25.30;18.10
431;DHT22;202;48.764;9.172;2023-07-13T06:48:21;26.40;15.80
431;DHT22;202;48.764;9.172;2023-07-13T06:50:55;27.40;15.30
431;DHT22;202;48.764;9.172;2023-07-13T06:53:45;27.40;12.40
431;DHT22;202;48.764;9.172;2023-07-13T06:56:18;27.10;13.60
431;DHT22;202;48.764;9.172;2023-07-13T07:16:55;29.80;11.40
431;DHT22;202;48.764;9.172;2023-07-13T07:19:35;30.40;10.40
431;DHT22;202;48.764;9.172;2023-07-13T07:22:07;31.40;9.60
431;DHT22;202;48.764;9.172;2023-07-13T07:28:02;32.30;7.50
431;DHT22;202;48.764;9.172;2023-07-13T07:58:04;33.70;3.30
431;DHT22;202;48.764;9.172;2023-07-13T08:00:52;33.60;2.80
431;DHT22;202;48.764;9.172;2023-07-13T08:03:31;33.70;3.50
431;DHT22;202;48.764;9.172;2023-07-13T08:06:00;33.80;3.70
431;DHT22;202;48.764;9.172;2023-07-13T08:09:15;33.40;3.90
431;DHT22;202;48.764;9.172;2023-07-13T08:11:56;33.10;4.00
431;DHT22;202;48.764;9.172;2023-07-13T08:14:24;33.50;4.00
431;DHT22;202;48.764;9.172;2023-07-13T08:16:51;33.50;3.60
431;DHT22;202;48.764;9.172;2023-07-13T08:23:27;34.20;3.80
431;DHT22;202;48.764;9.172;2023-07-13T08:30:24;34.50;3.00
431;DHT22;202;48.764;9.172;2023-07-13T08:37:04;34.60;3.20
431;DHT22;202;48.764;9.172;2023-07-13T08:48:48;33.20;4.50
431;DHT22;202;48.764;9.172;2023-07-13T08:51:57;33.10;5.40
431;DHT22;202;48.764;9.172;2023-07-13T09:01:39;32.60;5.10
431;DHT22;202;48.764;9.172;2023-07-13T10:09:25;28.60;8.00
431;DHT22;202;48.764;9.172;2023-07-13T10:12:12;28.10;8.60
431;DHT22;202;48.764;9.172;2023-07-13T10:14:45;27.80;11.00
431;DHT22;202;48.764;9.172;2023-07-13T10:17:48;27.60;9.40
431;DHT22;202;48.764;9.172;2023-07-13T10:21:14;27.80;10.20
431;DHT22;202;48.764;9.172;2023-07-13T10:23:58;27.90;9.90
431;DHT22;202;48.764;9.172;2023-07-13T10:26:52;28.10;9.80
431;DHT22;202;48.764;9.172;2023-07-13T10:29:53;28.00;10.10
431;DHT22;202;48.764;9.172;2023-07-13T10:32:24;28.10;10.40
431;DHT22;202;48.764;9.172;2023-07-13T10:35:01;28.30;10.80
431;DHT22;202;48.764;9.172;2023-07-13T10:40:45;28.40;8.30
431;DHT22;202;48.764;9.172;2023-07-13T10:43:25;28.50;9.90
431;DHT22;202;48.764;9.172;2023-07-13T10:46:07;28.40;8.90
431;DHT22;202;48.764;9.172;2023-07-13T10:49:03;28.20;9.40
431;DHT22;202;48.764;9.172;2023-07-13T10:51:40;28.10;9.10
431;DHT22;202;48.764;9.172;2023-07-13T10:54:41;27.70;9.20
431;DHT22;202;48.764;9.172;2023-07-13T10:57:33;27.70;9.70
431;DHT22;202;48.764;9.172;2023-07-13T11:00:49;27.80;10.40
431;DHT22;202;48.764;9.172;2023-07-13T11:04:11;27.90;10.00
431;DHT22;202;48.764;9.172;2023-07-13T11:07:10;28.00;9.70
431;DHT22;202;48.764;9.172;2023-07-13T11:10:40;27.80;10.40
431;DHT22;202;48.764;9.172;2023-07-13T11:13:29;27.70;10.50
431;DHT22;202;48.764;9.172;2023-07-13T11:16:50;27.60;10.80
431;DHT22;202;48.764;9.172;2023-07-13T11:19:44;27.80;10.40
431;DHT22;202;48.764;9.172;2023-07-13T11:22:42;28.00;11.00
431;DHT22;202;48.764;9.172;2023-07-13T11:25:32;27.90;11.50
431;DHT22;202;48.764;9.172;2023-07-13T11:28:27;27.90;10.60
431;DHT22;202;48.764;9.172;2023-07-13T11:34:00;27.70;9.70
431;DHT22;202;48.764;9.172;2023-07-13T11:36:38;27.70;11.00
431;DHT22;202;48.764;9.172;2023-07-13T11:39:19;27.70;11.50
431;DHT22;202;48.764;9.172;2023-07-13T12:12:47;28.60;9.20
431;DHT22;202;48.764;9.172;2023-07-13T12:15:43;28.40;9.90
431;DHT22;202;48.764;9.172;2023-07-13T12:18:20;28.30;10.10
431;DHT22;202;48.764;9.172;2023-07-13T12:21:04;28.50;9.80
431;DHT22;202;48.764;9.172;2023-07-13T12:23:59;28.70;8.70
431;DHT22;202;48.764;9.172;2023-07-13T12:27:00;28.40;8.40
431;DHT22;202;48.764;9.172;2023-07-13T12:43:01;28.40;9.50
431;DHT22;202;48.764;9.172;2023-07-13T12:45:55;28.50;9.10
431;DHT22;202;48.764;9.172;2023-07-13T12:48:23;28.50;8.00
431;DHT22;202;48.764;9.172;2023-07-13T12:50:51;28.40;8.40
431;DHT22;202;48.764;9.172;2023-07-13T12:53:23;28.30;9.40
431;DHT22;202;48.764;9.172;2023-07-13T12:55:55;28.40;9.50
431;DHT22;202;48.764;9.172;2023-07-13T12:58:28;28.40;8.40
431;DHT22;202;48.764;9.172;2023-07-13T13:00:57;28.20;8.30
431;DHT22;202;48.764;9.172;2023-07-13T13:03:29;28.20;8.80
431;DHT22;202;48.764;9.172;2023-07-13T13:06:00;28.20;8.60
431;DHT22;202;48.764;9.172;2023-07-13T13:08:29;27.90;8.60
431;DHT22;202;48.764;9.172;2023-07-13T13:10:56;27.80;8.70
431;DHT22;202;48.764;9.172;2023-07-13T13:13:23;27.50;9.10
431;DHT22;202;48.764;9.172;2023-07-13T13:15:53;27.50;8.70
431;DHT22;202;48.764;9.172;2023-07-13T13:18:22;27.40;9.10
431;DHT22;202;48.764;9.172;2023-07-13T13:20:49;27.40;9.50
431;DHT22;202;48.764;9.172;2023-07-13T13:23:18;27.50;9.70
431;DHT22;202;48.764;9.172;2023-07-13T13:25:46;27.60;10.00
431;DHT22;202;48.764;9.172;2023-07-13T13:28:15;27.60;9.70
431;DHT22;202;48.764;9.172;2023-07-13T13:30:44;27.80;9.20
431;DHT22;202;48.764;9.172;2023-07-13T13:33:15;27.80;8.40
431;DHT22;202;48.764;9.172;2023-07-13T13:35:43;27.90;9.20
431;DHT22;202;48.764;9.172;2023-07-13T13:38:14;27.90;9.00
431;DHT22;202;48.764;9.172;2023-07-13T13:40:46;27.90;9.20
431;DHT22;202;48.764;9.172;2023-07-13T13:43:17;27.90;8.40
431;DHT22;202;48.764;9.172;2023-07-13T13:45:46;27.90;9.30
431;DHT22;202;48.764;9.172;2023-07-13T13:48:35;28.00;8.60
431;DHT22;202;48.764;9.172;2023-07-13T13:51:16;28.00;8.00
431;DHT22;202;48.764;9.172;2023-07-13T13:53:44;28.00;9.00
431;DHT22;202;48.764;9.172;2023-07-13T13:56:22;28.10;9.40
431;DHT22;202;48.764;9.172;2023-07-13T13:58:56;28.00;8.30
431;DHT22;202;48.764;9.172;2023-07-13T14:01:30;28.10;8.80
431;DHT22;202;48.764;9.172;2023-07-13T14:04:16;28.10;9.00
431;DHT22;202;48.764;9.172;2023-07-13T14:06:49;28.30;7.60
431;DHT22;202;48.764;9.172;2023-07-13T14:09:18;28.10;8.10
431;DHT22;202;48.764;9.172;2023-07-13T14:11:50;28.00;8.20
431;DHT22;202;48.764;9.172;2023-07-13T14:14:20;28.10;7.90
431;DHT22;202;48.764;9.172;2023-07-13T14:16:49;28.00;8.80
431;DHT22;202;48.764;9.172;2023-07-13T14:19:22;28.00;8.10
431;DHT22;202;48.764;9.172;2023-07-13T14:21:50;27.80;8.70
431;DHT22;202;48.764;9.172;2023-07-13T14:24:19;27.90;9.20
431;DHT22;202;48.764;9.172;2023-07-13T14:26:47;28.00;9.10
431;DHT22;202;48.764;9.172;2023-07-13T14:29:16;28.00;9.40
431;DHT22;202;48.764;9.172;2023-07-13T14:31:44;28.00;9.60
431;DHT22;202;48.764;9.172;2023-07-13T14:34:12;28.20;9.00
431;DHT22;202;48.764;9.172;2023-07-13T14:36:43;28.20;8.70
431;DHT22;202;48.764;9.172;2023-07-13T14:39:13;28.20;8.00
431;DHT22;202;48.764;9.172;2023-07-13T14:41:42;28.10;7.90
431;DHT22;202;48.764;9.172;2023-07-13T14:44:12;28.20;8.60
431;DHT22;202;48.764;9.172;2023-07-13T14:46:40;28.20;8.60
431;DHT22;202;48.764;9.172;2023-07-13T14:49:22;28.20;8.10
431;DHT22;202;48.764;9.172;2023-07-13T14:51:52;27.90;8.70
431;DHT22;202;48.764;9.172;2023-07-13T14:54:19;28.00;9.20
431;DHT22;202;48.764;9.172;2023-07-13T14:56:49;28.00;8.40
431;DHT22;202;48.764;9.172;2023-07-13T14:59:16;27.90;9.00
431;DHT22;202;48.764;9.172;2023-07-13T15:01:45;27.80;8.70
431;DHT22;202;48.764;9.172;2023-07-13T15:04:16;27.80;9.20
431;DHT22;202;48.764;9.172;2023-07-13T15:06:56;27.70;8.50
431;DHT22;202;48.764;9.172;2023-07-13T15:09:24;27.70;9.70
431;DHT22;202;48.764;9.172;2023-07-13T15:11:52;27.70;9.40
431;DHT22;202;48.764;9.172;2023-07-13T15:14:19;27.60;9.00
431;DHT22;202;48.764;9.172;2023-07-13T15:16:48;27.60;10.20
431;DHT22;202;48.764;9.172;2023-07-13T15:19:16;27.60;9.40
431;DHT22;202;48.764;9.172;2023-07-13T15:21:49;27.50;9.90
431;DHT22;202;48.764;9.172;2023-07-13T15:24:19;27.50;10.00
431;DHT22;202;48.764;9.172;2023-07-13T15:26:46;27.50;10.00
431;DHT22;202;48.764;9.172;2023-07-13T15:29:14;27.60;9.30
431;DHT22;202;48.764;9.172;2023-07-13T15:31:42;27.60;9.20
431;DHT22;202;48.764;9.172;2023-07-13T15:34:14;27.60;9.60
431;DHT22;202;48.764;9.172;2023-07-13T15:36:42;27.50;9.90
431;DHT22;202;48.764;9.172;2023-07-13T15:39:13;27.40;9.70
431;DHT22;202;48.764;9.172;2023-07-13T15:41:43;27.50;9.80
431;DHT22;202;48.764;9.172;2023-07-13T15:44:23;27.40;9.60
431;DHT22;202;48.764;9.172;2023-07-13T15:46:50;27.50;9.80
431;DHT22;202;48.764;9.172;2023-07-13T15:49:20;27.50;9.60
431;DHT22;202;48.764;9.172;2023-07-13T15:51:47;27.40;9.10
431;DHT22;202;48.764;9.172;2023-07-13T15:54:16;27.40;10.40
431;DHT22;202;48.764;9.172;2023-07-13T15:57:00;27.40;9.90
431;DHT22;202;48.764;9.172;2023-07-13T15:59:27;27.40;9.70
431;DHT22;202;48.764;9.172;2023-07-13T16:01:54;27.50;10.20
431;DHT22;202;48.764;9.172;2023-07-13T16:04:21;27.50;9.10
431;DHT22;202;48.764;9.172;2023-07-13T16:06:49;27.60;9.30
431;DHT22;202;48.764;9.172;2023-07-13T16:09:19;27.40;9.10
431;DHT22;202;48.764;9.172;2023-07-13T16:11:47;27.30;8.90
431;DHT22;202;48.764;9.172;2023-07-13T16:14:17;27.30;9.10
431;DHT22;202;48.764;9.172;2023-07-13T16:16:46;27.30;9.80
431;DHT22;202;48.764;9.172;2023-07-13T16:19:16;27.30;9.70
431;DHT22;202;48.764;9.172;2023-07-13T16:21:45;27.30;9.90
431;DHT22;202;48.764;9.172;2023-07-13T16:24:16;27.30;10.10
431;DHT22;202;48.764;9.172;2023-07-13T16:26:43;27.30;10.10
431;DHT22;202;48.764;9.172;2023-07-13T16:29:15;27.30;9.80
431;DHT22;202;48.764;9.172;2023-07-13T16:31:57;27.40;9.90
431;DHT22;202;48.764;9.172;2023-07-13T16:34:25;27.40;9.60
431;DHT22;202;48.764;9.172;2023-07-13T16:36:52;27.40;10.60
431;DHT22;202;48.764;9.172;2023-07-13T16:39:19;27.40;9.90
431;DHT22;202;48.764;9.172;2023-07-13T16:41:49;27.30;9.80
431;DHT22;202;48.764;9.172;2023-07-13T16:44:18;27.30;9.80
431;DHT22;202;48.764;9.172;2023-07-13T16:46:46;27.30;10.30
431;DHT22;202;48.764;9.172;2023-07-13T16:52:38;27.20;10.10
431;DHT22;202;48.764;9.172;2023-07-13T16:55:10;27.20;10.80
431;DHT22;202;48.764;9.172;2023-07-13T16:57:44;27.10;9.90
431;DHT22;202;48.764;9.172;2023-07-13T17:00:27;27.00;10.20
431;DHT22;202;48.764;9.172;2023-07-13T17:42:37;26.30;10.80
431;DHT22;202;48.764;9.172;2023-07-13T17:45:05;26.20;11.40
431;DHT22;202;48.764;9.172;2023-07-13T17:47:32;26.20;11.90
431;DHT22;202;48.764;9.172;2023-07-13T17:49:59;26.20;11.60
431;DHT22;202;48.764;9.172;2023-07-13T17:52:28;26.30;11.70
431;DHT22;202;48.764;9.172;2023-07-13T17:55:14;26.30;11.30
431;DHT22;202;48.764;9.172;2023-07-13T17:57:46;26.30;11.30
431;DHT22;202;48.764;9.172;2023-07-13T18:00:17;26.30;10.80
431;DHT22;202;48.764;9.172;2023-07-13T18:02:59;26.20;12.20
431;DHT22;202;48.764;9.172;2023-07-13T18:05:28;26.20;11.90
431;DHT22;202;48.764;9.172;2023-07-13T18:07:56;26.20;12.10
431;DHT22;202;48.764;9.172;2023-07-13T18:10:23;26.20;12.20
431;DHT22;202;48.764;9.172;2023-07-13T18:12:57;26.20;12.10
431;DHT22;202;48.764;9.172;2023-07-13T18:15:27;26.20;11.90
431;DHT22;202;48.764;9.172;2023-07-13T18:17:58;26.20;12.60
431;DHT22;202;48.764;9.172;2023-07-13T18:20:29;26.20;12.30
431;DHT22;202;48.764;9.172;2023-07-13T18:22:58;26.20;12.10
431;DHT22;202;48.764;9.172;2023-07-13T18:25:29;26.10;12.30
431;DHT22;202;48.764;9.172;2023-07-13T18:27:57;26.10;12.20
431;DHT22;202;48.764;9.172;2023-07-13T18:30:29;26.00;12.50
431;DHT22;202;48.764;9.172;2023-07-13T18:32:58;26.00;13.00
431;DHT22;202;48.764;9.172;2023-07-13T18:35:32;26.00;12.70
431;DHT22;202;48.764;9.172;2023-07-13T18:38:00;25.90;12.90
431;DHT22;202;48.764;9.172;2023-07-13T18:40:42;25.90;13.10
431;DHT22;202;48.764;9.172;2023-07-13T18:43:13;25.90;13.20
431;DHT22;202;48.764;9.172;2023-07-13T18:45:43;25.90;12.90
431;DHT22;202;48.764;9.172;2023-07-13T18:48:17;25.90;13.20
431;DHT22;202;48.764;9.172;2023-07-13T18:50:46;25.80;14.10
431;DHT22;202;48.764;9.172;2023-07-13T18:53:18;25.70;13.40
431;DHT22;202;48.764;9.172;2023-07-13T18:55:49;25.60;13.60
431;DHT22;202;48.764;9.172;2023-07-13T18:58:23;25.60;14.00
431;DHT22;202;48.764;9.172;2023-07-13T19:00:52;25.60;13.40
431;DHT22;202;48.764;9.172;2023-07-13T19:03:28;25.50;14.10
431;DHT22;202;48.764;9.172;2023-07-13T19:06:01;25.60;13.80
431;DHT22;202;48.764;9.172;2023-07-13T19:08:38;25.60;14.00
431;DHT22;202;48.764;9.172;2023-07-13T19:11:13;25.50;14.60
431;DHT22;202;48.764;9.172;2023-07-13T19:13:42;25.50;14.40
431;DHT22;202;48.764;9.172;2023-07-13T19:16:13;25.40;14.50
431;DHT22;202;48.764;9.172;2023-07-13T19:18:42;25.30;14.30
431;DHT22;202;48.764;9.172;2023-07-13T19:21:31;25.30;14.90
431;DHT22;202;48.764;9.172;2023-07-13T19:24:20;25.30;15.20
431;DHT22;202;48.764;9.172;2023-07-13T19:27:09;25.10;15.00
431;DHT22;202;48.764;9.172;2023-07-13T19:29:42;25.10;15.10
431;DHT22;202;48.764;9.172;2023-07-13T19:32:40;25.00;15.20
431;DHT22;202;48.764;9.172;2023-07-13T19:35:23;25.10;15.40
431;DHT22;202;48.764;9.172;2023-07-13T19:37:56;25.10;15.10
431;DHT22;202;48.764;9.172;2023-07-13T19:40:32;25.10;15.20
431;DHT22;202;48.764;9.172;2023-07-13T19:43:15;25.00;15.30
431;DHT22;202;48.764;9.172;2023-07-13T19:45:46;25.00;15.90
431;DHT22;202;48.764;9.172;2023-07-13T19:48:14;24.90;15.70
431;DHT22;202;48.764;9.172;2023-07-13T19:50:55;24.90;15.80
431;DHT22;202;48.764;9.172;2023-07-13T19:53:24;24.90;15.70
431;DHT22;202;48.764;9.172;2023-07-13T19:55:55;24.80;15.80
431;DHT22;202;48.764;9.172;2023-07-13T19:58:22;24.80;16.20
431;DHT22;202;48.764;9.172;2023-07-13T20:00:54;24.80;16.10
431;DHT22;202;48.764;9.172;2023-07-13T20:03:35;24.70;16.20
431;DHT22;202;48.764;9.172;2023-07-13T20:06:12;24.80;16.20
431;DHT22;202;48.764;9.172;2023-07-13T20:08:42;24.70;16.80
431;DHT22;202;48.764;9.172;2023-07-13T20:11:15;24.60;16.70
431;DHT22;202;48.764;9.172;2023-07-13T20:13:43;24.50;17.30
431;DHT22;202;48.764;9.172;2023-07-13T21:23:59;23.50;19.20
431;DHT22;202;48.764;9.172;2023-07-13T21:27:04;23.40;19.80
431;DHT22;202;48.764;9.172;2023-07-13T21:29:52;23.20;20.00
431;DHT22;202;48.764;9.172;2023-07-13T21:32:40;23.10;20.20
431;DHT22;202;48.764;9.172;2023-07-13T21:39:17;22.90;20.60
431;DHT22;202;48.764;9.172;2023-07-13T21:42:02;22.70;20.80
431;DHT22;202;48.764;9.172;2023-07-13T21:44:32;22.70;20.80
431;DHT22;202;48.764;9.172;2023-07-13T21:47:16;22.60;20.70
431;DHT22;202;48.764;9.172;2023-07-13T21:49:46;22.70;21.50
431;DHT22;202;48.764;9.172;2023-07-13T21:52:43;22.60;20.20
431;DHT22;202;48.764;9.172;2023-07-13T22:05:39;22.30;21.20
431;DHT22;202;48.764;9.172;2023-07-13T22:08:09;22.30;21.90
431;DHT22;202;48.764;9.172;2023-07-13T22:10:37;22.20;21.70
431;DHT22;202;48.764;9.172;2023-07-13T22:13:05;22.20;20.90
431;DHT22;202;48.764;9.172;2023-07-13T22:15:32;22.20;21.40
431;DHT22;202;48.764;9.172;2023-07-13T22:18:01;22.20;21.30
431;DHT22;202;48.764;9.172;2023-07-13T22:20:29;22.20;20.90
431;DHT22;202;48.764;9.172;2023-07-13T22:23:00;21.90;21.10
431;DHT22;202;48.764;9.172;2023-07-13T22:25:28;21.80;21.30
431;DHT22;202;48.764;9.172;2023-07-13T22:27:56;21.90;21.20
431;DHT22;202;48.764;9.172;2023-07-13T22:30:25;21.90;21.70
431;DHT22;202;48.764;9.172;2023-07-13T22:32:52;21.90;22.10
431;DHT22;202;48.764;9.172;2023-07-13T22:35:23;22.20;22.10
431;DHT22;202;48.764;9.172;2023-07-13T22:37:52;22.40;21.50
431;DHT22;202;48.764;9.172;2023-07-13T22:40:26;22.40;21.50
431;DHT22;202;48.764;9.172;2023-07-13T22:42:53;22.30;22.40
431;DHT22;202;48.764;9.172;2023-07-13T22:45:20;22.10;21.60
431;DHT22;202;48.764;9.172;2023-07-13T22:47:47;21.90;21.60
431;DHT22;202;48.764;9.172;2023-07-13T22:50:17;21.90;21.90
431;DHT22;202;48.764;9.172;2023-07-13T22:52:49;21.90;21.90
431;DHT22;202;48.764;9.172;2023-07-13T23:00:08;21.70;23.00
431;DHT22;202;48.764;9.172;2023-07-13T23:02:14;21.70;23.00
431;DHT22;202;48.764;9.172;2023-07-13T23:04:46;21.60;22.60
431;DHT22;202;48.764;9.172;2023-07-13T23:07:15;21.50;23.40
431;DHT22;202;48.764;9.172;2023-07-13T23:09:45;21.40;24.80
431;DHT22;202;48.764;9.172;2023-07-13T23:12:13;21.30;24.70
431;DHT22;202;48.764;9.172;2023-07-13T23:14:40;21.20;25.60
431;DHT22;202;48.764;9.172;2023-07-13T23:17:11;21.20;25.60
431;DHT22;202;48.764;9.172;2023-07-13T23:19:38;21.00;25.60
431;DHT22;202;48.764;9.172;2023-07-13T23:22:08;21.00;25.10
431;DHT22;202;48.764;9.172;2023-07-13T23:24:42;20.90;24.40
431;DHT22;202;48.764;9.172;2023-07-13T23:27:09;20.80;24.30
431;DHT22;202;48.764;9.172;2023-07-13T23:29:37;20.90;24.40
431;DHT22;202;48.764;9.172;2023-07-13T23:32:08;21.00;24.50
431;DHT22;202;48.764;9.172;2023-07-13T23:34:36;21.00;24.60
431;DHT22;202;48.764;9.172;2023-07-13T23:37:15;21.00;24.90
431;DHT22;202;48.764;9.172;2023-07-13T23:39:42;21.00;24.90
431;DHT22;202;48.764;9.172;2023-07-13T23:42:10;21.10;24.50
431;DHT22;202;48.764;9.172;2023-07-13T23:44:39;21.20;24.60
431;DHT22;202;48.764;9.172;2023-07-13T23:47:08;21.30;24.70
431;DHT22;202;48.764;9.172;2023-07-13T23:49:35;21.30;24.70
431;DHT22;202;48.764;9.172;2023-07-13T23:52:09;21.20;24.60
431;DHT22;202;48.764;9.172;2023-07-13T23:54:38;21.20;24.60
431;DHT22;202;48.764;9.172;2023-07-13T23:57:08;21.20;24.60
431;DHT22;202;48.764;9.172;2023-07-13T23:59:35;21.10;25.30
